Time;durP1;ratioP1;P1;durP2;ratioP2;P2;SDS_P1;SDS_P2;PMS_P1;PMS_P2;Temp;Humidity;BMP_temperature;BMP_pressure;BME280_temperature;BME280_humidity;BME280_pressure;Samples;Min_cycle;Max_cycle;Signal;HPM_P1;HPM_P2
2021/08/07 00:00:25;;;;;;;8.43;2.97;;;;;;;15.49;86.09;100529.50;4979432;28;20054;-74
2021/08/07 00:02:53;;;;;;;5.47;2.40;;;;;;;15.50;86.06;100530.34;4980332;28;20501;-74
2021/08/07 00:05:21;;;;;;;8.32;3.03;;;;;;;15.41;86.01;100528.16;4982266;28;20468;-73
2021/08/07 00:07:50;;;;;;;10.40;2.83;;;;;;;15.38;85.85;100513.09;4980002;28;20090;-73
2021/08/07 00:10:19;;;;;;;8.77;3.05;;;;;;;15.39;86.09;100522.00;4976640;28;20065;-72
2021/08/07 00:12:46;;;;;;;8.30;3.13;;;;;;;15.36;86.18;100523.06;4977870;28;20062;-73
2021/08/07 00:15:18;;;;;;;8.90;3.17;;;;;;;15.37;85.73;100515.88;4979862;28;20082;-75
2021/08/07 00:17:45;;;;;;;11.35;2.80;;;;;;;15.28;86.13;100519.94;4979123;28;20417;-74
2021/08/07 00:20:14;;;;;;;14.20;3.42;;;;;;;15.26;86.19;100528.09;4977165;28;20058;-74
2021/08/07 00:22:41;;;;;;;11.55;3.08;;;;;;;15.16;86.64;100526.88;4978969;28;20093;-74
2021/08/07 00:25:12;;;;;;;7.50;3.03;;;;;;;15.15;86.40;100524.28;4979125;28;20073;-74
2021/08/07 00:27:40;;;;;;;10.25;3.00;;;;;;;15.14;86.67;100526.13;4976613;28;20113;-74
2021/08/07 00:30:10;;;;;;;11.93;3.13;;;;;;;15.13;86.82;100524.38;4983232;28;20108;-72
2021/08/07 00:32:38;;;;;;;7.20;2.92;;;;;;;15.12;86.44;100528.88;4976695;28;20101;-72
2021/08/07 00:35:08;;;;;;;12.23;3.33;;;;;;;15.11;86.72;100526.28;4978663;28;20116;-72
2021/08/07 00:37:36;;;;;;;9.70;2.85;;;;;;;15.10;86.75;100532.59;4981020;28;20070;-73
2021/08/07 00:40:06;;;;;;;14.40;3.83;;;;;;;15.05;87.02;100526.59;4979048;28;20054;-72
2021/08/07 00:42:35;;;;;;;10.43;3.35;;;;;;;14.98;87.53;100528.75;4980960;28;20065;-73
2021/08/07 00:45:03;;;;;;;13.68;3.30;;;;;;;15.01;87.23;100519.69;4976931;28;20070;-69
2021/08/07 00:47:31;;;;;;;11.38;2.95;;;;;;;15.03;87.24;100523.16;4976921;28;20160;-68
2021/08/07 00:49:59;;;;;;;11.55;2.90;;;;;;;14.99;87.41;100518.91;4979978;28;20054;-69
2021/08/07 00:52:27;;;;;;;13.93;3.45;;;;;;;14.90;87.89;100514.91;4978621;28;20058;-68
2021/08/07 00:54:55;;;;;;;15.45;3.40;;;;;;;14.86;88.16;100516.88;4980609;28;20074;-69
2021/08/07 00:57:23;;;;;;;12.57;3.15;;;;;;;14.84;88.24;100520.63;4977659;28;20128;-69
2021/08/07 00:59:52;;;;;;;10.88;3.03;;;;;;;14.83;88.55;100521.56;4980139;28;20054;-69
2021/08/07 01:02:22;;;;;;;10.95;3.10;;;;;;;14.78;88.51;100518.25;4978154;28;20068;-69
2021/08/07 01:05:00;;;;;;;13.38;3.42;;;;;;;14.79;88.46;100517.31;4980261;28;20105;-69
2021/08/07 01:07:32;;;;;;;10.70;3.50;;;;;;;14.78;88.48;100513.78;4977662;28;20641;-69
2021/08/07 01:10:09;;;;;;;12.18;3.13;;;;;;;14.82;88.44;100517.16;4978707;28;20109;-69
2021/08/07 01:12:45;;;;;;;14.43;3.47;;;;;;;14.74;88.74;100506.81;4979739;28;20129;-68
2021/08/07 01:15:18;;;;;;;11.10;3.20;;;;;;;14.73;88.90;100505.94;4978127;28;20341;-69
2021/08/07 01:17:48;;;;;;;14.30;3.78;;;;;;;14.75;88.51;100505.88;4980668;28;20595;-73
2021/08/07 01:20:22;;;;;;;14.02;3.50;;;;;;;14.70;88.82;100500.75;4977710;28;20093;-73
2021/08/07 01:23:01;;;;;;;11.23;3.38;;;;;;;14.71;88.79;100491.75;4978899;28;20070;-73
2021/08/07 01:25:40;;;;;;;9.52;3.00;;;;;;;14.70;89.24;100495.38;4979487;28;20062;-74
2021/08/07 01:28:10;;;;;;;10.25;3.83;;;;;;;14.68;89.22;100497.28;4978633;28;20073;-72
2021/08/07 01:30:38;;;;;;;13.00;3.33;;;;;;;14.70;89.03;100499.88;4978194;28;20062;-73
2021/08/07 01:33:06;;;;;;;11.73;3.53;;;;;;;14.67;89.06;100492.00;4978078;28;20097;-73
2021/08/07 01:35:34;;;;;;;10.27;3.10;;;;;;;14.68;89.36;100493.75;4981745;28;20108;-72
2021/08/07 01:38:02;;;;;;;14.88;3.38;;;;;;;14.63;89.35;100485.06;4977419;28;20122;-73
2021/08/07 01:40:30;;;;;;;15.27;3.60;;;;;;;14.61;89.91;100487.84;4980087;28;20046;-73
2021/08/07 01:42:58;;;;;;;19.02;3.55;;;;;;;14.67;89.24;100484.78;4978512;28;20075;-73
2021/08/07 01:45:27;;;;;;;13.35;3.85;;;;;;;14.70;89.35;100476.56;4977573;28;20105;-69
2021/08/07 01:47:59;;;;;;;12.10;3.25;;;;;;;14.64;89.74;100476.94;4979470;28;20066;-69
2021/08/07 01:50:32;;;;;;;10.27;3.35;;;;;;;14.64;89.46;100476.94;4978556;28;20066;-68
2021/08/07 01:53:01;;;;;;;10.93;3.40;;;;;;;14.63;89.46;100475.19;4976878;28;20732;-68
2021/08/07 01:55:34;;;;;;;10.32;3.83;;;;;;;14.64;89.96;100465.31;4976664;28;20797;-68
2021/08/07 01:58:06;;;;;;;13.50;3.42;;;;;;;14.60;89.67;100471.81;4978578;28;20123;-68
2021/08/07 02:00:39;;;;;;;13.35;3.72;;;;;;;14.59;90.63;100468.22;4976719;28;20094;-68
2021/08/07 02:03:08;;;;;;;11.27;3.28;;;;;;;14.62;91.47;100469.91;4978163;28;20073;-68
2021/08/07 02:05:37;;;;;;;12.52;3.78;;;;;;;14.61;91.30;100477.09;4977981;28;20109;-68
2021/08/07 02:08:09;;;;;;;9.85;3.30;;;;;;;14.62;92.00;100480.63;4977074;28;20195;-69
2021/08/07 02:10:38;;;;;;;12.88;3.90;;;;;;;14.58;92.81;100477.22;4980025;28;20059;-68
2021/08/07 02:13:08;;;;;;;16.30;4.63;;;;;;;14.59;93.00;100480.78;4976927;28;20054;-72
2021/08/07 02:15:38;;;;;;;15.35;3.92;;;;;;;14.60;93.44;100478.03;4976951;28;20059;-73
2021/08/07 02:18:06;;;;;;;12.23;4.30;;;;;;;14.59;94.13;100468.22;4977719;28;20066;-72
2021/08/07 02:20:35;;;;;;;11.20;4.03;;;;;;;14.61;94.35;100470.84;4960821;28;20346;-68
2021/08/07 02:23:03;;;;;;;11.85;4.47;;;;;;;14.64;94.24;100468.88;4977599;28;20054;-68
2021/08/07 02:25:31;;;;;;;10.38;4.85;;;;;;;14.61;94.27;100470.84;4980231;28;20517;-69
2021/08/07 02:28:00;;;;;;;11.30;4.20;;;;;;;14.57;94.56;100468.31;4979224;28;20058;-68
2021/08/07 02:30:29;;;;;;;12.43;4.15;;;;;;;14.56;94.72;100473.75;4976660;28;20090;-68
2021/08/07 02:32:59;;;;;;;14.40;4.35;;;;;;;14.54;95.08;100481.00;4977281;28;20137;-69
2021/08/07 02:35:27;;;;;;;14.02;4.35;;;;;;;14.55;95.76;100483.63;4981588;28;20062;-69
2021/08/07 02:37:55;;;;;;;11.50;4.53;;;;;;;14.59;95.93;100487.03;4982341;28;20782;-69
2021/08/07 02:40:23;;;;;;;9.93;4.32;;;;;;;14.60;95.66;100475.34;4980723;28;20070;-73
2021/08/07 02:42:52;;;;;;;12.95;4.78;;;;;;;14.60;95.47;100480.72;4982509;28;20402;-73
2021/08/07 02:45:20;;;;;;;15.63;5.35;;;;;;;14.61;95.58;100477.09;4980269;28;20337;-73
2021/08/07 02:47:48;;;;;;;10.18;4.18;;;;;;;14.61;95.70;100471.72;4980245;28;20120;-73
2021/08/07 02:50:19;;;;;;;13.07;4.75;;;;;;;14.61;95.50;100471.72;4980498;28;20058;-73
2021/08/07 02:52:47;;;;;;;13.70;5.18;;;;;;;14.60;95.64;100461.94;4979436;28;20066;-74
2021/08/07 02:55:15;;;;;;;11.77;4.22;;;;;;;14.59;95.63;100457.50;4982091;28;20062;-72
2021/08/07 02:57:43;;;;;;;14.75;4.25;;;;;;;14.67;94.93;100454.41;4981594;28;20067;-73
2021/08/07 03:00:12;;;;;;;13.48;4.18;;;;;;;14.64;94.92;100457.25;4982598;28;20073;-73
2021/08/07 03:02:40;;;;;;;15.10;4.25;;;;;;;14.65;95.69;100457.16;4979676;28;20484;-73
2021/08/07 03:05:09;;;;;;;13.15;4.20;;;;;;;14.62;96.81;100451.09;4981909;28;20069;-73
2021/08/07 03:07:38;;;;;;;15.13;4.80;;;;;;;14.60;97.42;100450.31;4979834;28;20323;-69
2021/08/07 03:10:08;;;;;;;10.55;4.85;;;;;;;14.61;97.66;100462.78;4980863;28;20428;-69
2021/08/07 03:12:37;;;;;;;15.55;4.90;;;;;;;14.58;97.72;100466.47;4978874;28;20057;-69
2021/08/07 03:15:06;;;;;;;16.05;4.55;;;;;;;14.53;97.98;100464.03;4981123;28;20477;-69
2021/08/07 03:17:34;;;;;;;12.93;4.03;;;;;;;14.52;97.50;100456.06;4978942;28;20054;-69
2021/08/07 03:20:02;;;;;;;13.20;4.03;;;;;;;14.55;97.17;100456.75;4980122;28;20074;-68
2021/08/07 03:22:30;;;;;;;12.43;4.78;;;;;;;14.54;97.07;100465.78;4982567;28;20065;-69
2021/08/07 03:24:59;;;;;;;12.93;4.18;;;;;;;14.57;95.98;100465.63;4980075;28;20069;-68
2021/08/07 03:27:27;;;;;;;14.25;4.88;;;;;;;14.57;95.96;100470.09;4979232;28;20066;-70
2021/08/07 03:29:55;;;;;;;9.82;3.85;;;;;;;14.54;96.11;100462.22;4978234;28;20054;-74
2021/08/07 03:32:23;;;;;;;8.65;3.67;;;;;;;14.49;96.42;100458.91;4978834;28;20249;-73
2021/08/07 03:34:51;;;;;;;12.07;4.30;;;;;;;14.47;96.86;100459.03;4983520;28;20094;-73
2021/08/07 03:37:19;;;;;;;11.05;3.83;;;;;;;14.46;97.08;100459.09;4979237;28;20156;-72
2021/08/07 03:39:46;;;;;;;11.70;4.35;;;;;;;14.42;96.50;100463.78;4981098;28;20074;-73
2021/08/07 03:42:19;;;;;;;11.70;4.07;;;;;;;14.41;95.88;100456.66;4981218;28;20181;-75
2021/08/07 03:44:47;;;;;;;10.10;3.80;;;;;;;14.37;95.88;100460.47;4979656;28;20458;-73
2021/08/07 03:47:16;;;;;;;17.15;4.90;;;;;;;14.34;95.67;100452.59;4981102;28;20070;-73
2021/08/07 03:49:43;;;;;;;9.80;3.78;;;;;;;14.31;96.36;100453.59;4978926;28;20066;-73
2021/08/07 03:52:11;;;;;;;9.35;3.60;;;;;;;14.30;95.83;100448.31;4978179;28;20543;-73
2021/08/07 03:54:39;;;;;;;10.18;3.83;;;;;;;14.32;95.65;100441.03;4978496;28;20042;-73
2021/08/07 03:57:07;;;;;;;10.32;3.72;;;;;;;14.29;96.09;100454.66;4981796;28;20073;-73
2021/08/07 03:59:36;;;;;;;13.38;4.10;;;;;;;14.25;95.73;100439.63;4976087;28;20097;-73
2021/08/07 04:02:04;;;;;;;12.77;4.03;;;;;;;14.24;96.64;100445.97;4981151;28;20066;-73
2021/08/07 04:04:31;;;;;;;12.85;4.30;;;;;;;14.22;96.42;100442.47;4980724;28;20148;-73
2021/08/07 04:06:59;;;;;;;12.43;4.18;;;;;;;14.18;96.42;100444.47;4980414;28;20050;-73
2021/08/07 04:09:27;;;;;;;13.02;3.67;;;;;;;14.18;96.91;100445.34;4979490;28;20130;-73
2021/08/07 04:11:55;;;;;;;12.00;4.03;;;;;;;14.17;96.96;100442.75;4978363;28;20058;-74
2021/08/07 04:14:23;;;;;;;12.50;3.55;;;;;;;14.13;97.02;100441.16;4980497;28;20066;-73
2021/08/07 04:16:52;;;;;;;14.40;4.55;;;;;;;14.16;96.87;100441.00;4975092;28;20136;-73
2021/08/07 04:19:20;;;;;;;16.40;4.05;;;;;;;14.17;96.90;100448.97;4979977;28;20077;-73
2021/08/07 04:21:47;;;;;;;10.60;4.38;;;;;;;14.16;97.08;100444.53;4980489;28;20061;-73
2021/08/07 04:24:15;;;;;;;13.60;4.47;;;;;;;14.16;97.25;100441.84;4980074;28;20142;-73
2021/08/07 04:26:43;;;;;;;12.18;3.88;;;;;;;14.17;97.16;100440.06;4979451;28;20445;-73
2021/08/07 04:29:11;;;;;;;9.57;4.10;;;;;;;14.20;97.53;100435.41;4978010;28;21720;-73
2021/08/07 04:31:38;;;;;;;12.57;4.30;;;;;;;14.22;97.32;100438.00;4979455;28;20136;-73
2021/08/07 04:34:08;;;;;;;11.40;3.92;;;;;;;14.25;97.83;100432.47;4977276;28;20068;-73
2021/08/07 04:36:36;;;;;;;10.60;4.63;;;;;;;14.28;97.34;100442.16;4981249;28;20152;-73
2021/08/07 04:39:03;;;;;;;9.98;3.75;;;;;;;14.32;97.32;100441.94;4978491;28;20137;-73
2021/08/07 04:41:31;;;;;;;13.40;4.15;;;;;;;14.36;97.41;100446.16;4975872;28;20567;-73
2021/08/07 04:43:59;;;;;;;10.75;4.32;;;;;;;14.41;97.40;100447.75;4977071;28;20358;-73
2021/08/07 04:46:28;;;;;;;8.23;4.75;;;;;;;14.43;97.37;100449.38;4975501;28;20149;-73
2021/08/07 04:48:56;;;;;;;9.20;3.85;;;;;;;14.46;97.20;100441.19;4979285;28;20086;-73
2021/08/07 04:51:25;;;;;;;11.65;3.75;;;;;;;14.52;97.27;100443.53;4976615;28;20054;-73
2021/08/07 04:53:53;;;;;;;11.60;3.97;;;;;;;14.63;96.82;100434.91;4978469;28;20157;-73
2021/08/07 04:56:21;;;;;;;15.02;4.70;;;;;;;14.65;96.80;100435.69;4979210;28;20133;-73
2021/08/07 04:58:49;;;;;;;12.75;4.50;;;;;;;14.68;96.70;100431.97;4980190;28;20090;-73
2021/08/07 05:01:17;;;;;;;15.85;4.72;;;;;;;14.75;96.32;100438.75;4977911;28;20427;-73
2021/08/07 05:03:45;;;;;;;9.27;4.18;;;;;;;14.75;96.03;100434.22;4977669;28;20059;-73
2021/08/07 05:06:13;;;;;;;10.30;3.60;;;;;;;14.76;96.42;100440.44;4979500;28;20145;-73
2021/08/07 05:08:42;;;;;;;15.35;4.60;;;;;;;14.73;96.06;100437.97;4978620;28;20394;-73
2021/08/07 05:11:10;;;;;;;14.35;3.75;;;;;;;14.69;96.60;100437.28;4978636;28;20062;-73
2021/08/07 05:13:37;;;;;;;10.20;3.92;;;;;;;14.72;96.10;100434.38;4980574;28;21691;-73
2021/08/07 05:16:05;;;;;;;13.65;4.35;;;;;;;14.75;96.00;100436.06;4977499;28;20066;-73
2021/08/07 05:18:33;;;;;;;12.38;4.15;;;;;;;14.84;95.91;100432.84;4980456;28;20066;-73
2021/08/07 05:21:01;;;;;;;13.75;5.50;;;;;;;14.93;95.35;100423.38;4979411;28;20063;-73
2021/08/07 05:23:29;;;;;;;14.32;4.70;;;;;;;15.07;94.70;100419.94;4979892;28;20412;-73
2021/08/07 05:25:58;;;;;;;8.77;3.75;;;;;;;15.21;93.59;100421.81;4979210;28;20183;-73
2021/08/07 05:28:25;;;;;;;9.48;3.60;;;;;;;15.34;92.96;100413.91;4976576;28;20097;-69
2021/08/07 05:30:53;;;;;;;9.80;4.15;;;;;;;15.45;91.83;100415.00;4976149;28;20330;-69
2021/08/07 05:33:21;;;;;;;10.27;3.85;;;;;;;15.58;91.14;100419.63;4978381;28;20066;-69
2021/08/07 05:35:49;;;;;;;10.95;3.63;;;;;;;15.65;90.09;100418.34;4979583;28;20345;-69
2021/08/07 05:38:17;;;;;;;9.63;3.20;;;;;;;15.86;89.41;100419.75;4977309;28;20066;-69
2021/08/07 05:40:45;;;;;;;11.70;3.78;;;;;;;15.82;89.08;100420.03;4980683;28;20607;-69
2021/08/07 05:43:14;;;;;;;10.13;3.60;;;;;;;15.58;89.60;100417.84;4975026;28;20446;-69
2021/08/07 05:45:42;;;;;;;7.60;3.40;;;;;;;15.53;89.58;100421.72;4976942;28;20058;-69
2021/08/07 05:48:10;;;;;;;10.20;3.47;;;;;;;15.57;90.08;100420.63;4979415;28;20310;-69
2021/08/07 05:50:37;;;;;;;13.07;4.07;;;;;;;15.64;90.00;100422.81;4978446;28;20113;-69
2021/08/07 05:53:05;;;;;;;10.95;3.80;;;;;;;15.56;91.19;100421.56;4976927;28;20073;-69
2021/08/07 05:55:33;;;;;;;12.23;4.15;;;;;;;15.59;91.29;100426.75;4975772;28;20062;-69
2021/08/07 05:58:03;;;;;;;9.23;4.47;;;;;;;15.69;91.19;100423.41;4979721;28;20094;-68
2021/08/07 06:00:32;;;;;;;9.52;4.10;;;;;;;16.03;89.39;100415.16;4977554;28;20645;-73
2021/08/07 06:03:00;;;;;;;14.45;4.70;;;;;;;16.42;87.55;100416.34;4977519;28;20117;-73
2021/08/07 06:05:28;;;;;;;9.50;3.97;;;;;;;16.58;86.52;100405.44;4978642;28;20302;-69
2021/08/07 06:07:56;;;;;;;9.20;3.97;;;;;;;17.03;85.30;100408.00;4979597;28;20281;-69
2021/08/07 06:10:24;;;;;;;11.75;3.92;;;;;;;16.90;83.84;100400.69;4983692;28;20234;-69
2021/08/07 06:12:51;;;;;;;14.77;4.32;;;;;;;16.74;85.14;100399.94;4983206;28;20070;-70
2021/08/07 06:15:19;;;;;;;9.45;3.63;;;;;;;16.68;85.84;100403.88;4982161;28;20141;-71
2021/08/07 06:17:48;;;;;;;11.23;3.90;;;;;;;16.62;86.26;100398.91;4982478;28;20168;-69
2021/08/07 06:20:17;;;;;;;23.88;15.52;;;;;;;16.42;86.48;100400.19;4983958;28;20104;-69
2021/08/07 06:22:45;;;;;;;10.70;6.00;;;;;;;16.40;87.52;100394.03;4982417;28;20109;-70
2021/08/07 06:25:13;;;;;;;11.65;5.72;;;;;;;16.29;86.60;100392.00;4980677;28;20066;-70
2021/08/07 06:27:40;;;;;;;13.32;8.60;;;;;;;16.27;86.17;100402.00;4983535;28;20446;-72
2021/08/07 06:30:10;;;;;;;13.50;5.88;;;;;;;16.31;85.41;100398.19;4982156;28;20066;-72
2021/08/07 06:32:37;;;;;;;13.27;4.60;;;;;;;16.87;84.53;100391.94;4982000;28;20125;-73
2021/08/07 06:35:07;;;;;;;10.30;3.50;;;;;;;16.88;83.82;100386.47;4982804;28;20113;-72
2021/08/07 06:37:35;;;;;;;11.77;5.00;;;;;;;16.72;83.87;100388.38;4981556;28;20121;-72
2021/08/07 06:40:04;;;;;;;10.68;5.20;;;;;;;16.70;83.39;100396.59;4980959;28;20066;-72
2021/08/07 06:42:31;;;;;;;10.57;4.32;;;;;;;16.62;83.31;100391.69;4982711;28;20117;-72
2021/08/07 06:44:59;;;;;;;11.10;4.30;;;;;;;16.68;82.64;100389.56;4983060;28;20069;-73
2021/08/07 06:47:27;;;;;;;12.32;5.93;;;;;;;16.73;82.79;100390.97;4981430;28;20155;-72
2021/08/07 06:49:57;;;;;;;15.20;7.47;;;;;;;16.74;82.29;100390.03;4983392;28;20070;-71
2021/08/07 06:52:26;;;;;;;10.60;5.30;;;;;;;16.78;82.91;100396.06;4980462;28;20374;-71
2021/08/07 06:54:54;;;;;;;29.15;17.00;;;;;;;16.67;83.40;100394.09;4980664;28;20073;-71
2021/08/07 06:57:22;;;;;;;35.70;15.55;;;;;;;16.64;83.44;100388.91;4981636;28;20587;-72
2021/08/07 06:59:51;;;;;;;79.93;35.05;;;;;;;16.51;83.02;100387.94;4980407;28;20062;-72
2021/08/07 07:02:19;;;;;;;29.83;13.55;;;;;;;16.46;83.12;100384.69;4979787;28;20160;-69
2021/08/07 07:04:49;;;;;;;10.98;4.28;;;;;;;16.46;83.35;100403.53;4981582;28;20079;-69
2021/08/07 07:07:18;;;;;;;11.90;4.90;;;;;;;16.42;84.21;100390.25;4979546;28;20070;-71
2021/08/07 07:09:47;;;;;;;9.98;3.85;;;;;;;16.37;83.29;100389.69;4980195;28;20412;-70
2021/08/07 07:12:15;;;;;;;6.50;3.45;;;;;;;16.60;84.16;100392.72;4981288;28;20271;-70
2021/08/07 07:14:43;;;;;;;9.23;3.03;;;;;;;16.68;83.06;100394.94;4983520;28;20144;-69
2021/08/07 07:17:11;;;;;;;7.10;3.20;;;;;;;16.72;82.52;100391.97;4981367;28;20093;-70
2021/08/07 07:19:39;;;;;;;11.65;3.67;;;;;;;16.56;83.33;100391.22;4982263;28;20622;-70
2021/08/07 07:22:07;;;;;;;10.55;3.30;;;;;;;16.70;83.77;100401.97;4980805;28;20066;-70
2021/08/07 07:24:35;;;;;;;8.07;3.55;;;;;;;16.66;84.11;100391.50;4982179;28;20077;-71
2021/08/07 07:27:04;;;;;;;8.98;3.30;;;;;;;16.60;84.62;100403.50;4980567;28;20117;-70
2021/08/07 07:29:32;;;;;;;10.70;3.35;;;;;;;16.63;85.63;100397.94;4981515;28;20459;-72
2021/08/07 07:32:00;;;;;;;7.53;3.13;;;;;;;16.51;86.47;100402.28;4981078;28;20070;-71
2021/08/07 07:34:27;;;;;;;6.82;3.40;;;;;;;16.40;86.43;100411.03;4980981;28;20050;-73
2021/08/07 07:36:55;;;;;;;6.97;3.15;;;;;;;16.52;87.47;100405.84;4980561;28;20062;-71
2021/08/07 07:39:23;;;;;;;7.32;3.13;;;;;;;16.63;87.23;100414.09;4980453;28;20128;-71
2021/08/07 07:41:51;;;;;;;9.40;3.38;;;;;;;16.53;86.90;100407.56;4981684;28;20108;-71
2021/08/07 07:44:20;;;;;;;9.15;3.15;;;;;;;16.61;85.88;100414.19;4980683;28;20077;-72
2021/08/07 07:46:48;;;;;;;8.23;3.60;;;;;;;16.70;86.92;100409.16;4981538;28;20169;-72
2021/08/07 07:49:16;;;;;;;9.30;3.72;;;;;;;16.70;86.93;100399.28;4980192;28;20066;-73
2021/08/07 07:51:44;;;;;;;8.95;3.92;;;;;;;16.64;87.47;100396.97;4981109;28;20074;-73
2021/08/07 07:54:11;;;;;;;12.88;4.55;;;;;;;16.61;88.05;100398.03;4976430;28;20063;-73
2021/08/07 07:56:39;;;;;;;9.50;4.05;;;;;;;16.95;88.07;100392.31;4978521;28;20089;-73
2021/08/07 07:59:07;;;;;;;10.52;4.28;;;;;;;16.83;86.59;100393.94;4982312;28;20406;-73
2021/08/07 08:01:36;;;;;;;9.00;3.65;;;;;;;16.80;87.01;100397.72;4980017;28;20070;-73
2021/08/07 08:04:05;;;;;;;11.43;5.18;;;;;;;16.94;87.01;100395.97;4979987;28;20047;-73
2021/08/07 08:06:33;;;;;;;10.93;3.80;;;;;;;16.91;86.42;100397.03;4980374;28;20065;-73
2021/08/07 08:09:01;;;;;;;10.15;4.22;;;;;;;17.22;86.05;100391.47;4979846;28;20063;-73
2021/08/07 08:11:29;;;;;;;11.18;5.10;;;;;;;17.28;87.14;100383.81;4980074;28;20639;-73
2021/08/07 08:14:00;;;;;;;10.65;4.45;;;;;;;17.29;85.45;100385.53;4979371;28;20069;-72
2021/08/07 08:16:28;;;;;;;8.93;3.90;;;;;;;17.47;83.77;100383.44;4979545;28;20255;-72
2021/08/07 08:18:58;;;;;;;9.73;3.90;;;;;;;17.48;84.18;100385.16;4981075;28;20066;-73
2021/08/07 08:21:26;;;;;;;13.52;4.30;;;;;;;17.62;84.45;100388.75;4980219;28;20058;-73
2021/08/07 08:23:53;;;;;;;15.98;4.15;;;;;;;17.50;83.32;100385.94;4975243;28;20114;-74
2021/08/07 08:26:21;;;;;;;9.93;3.28;;;;;;;17.69;82.02;100382.84;4980596;28;20046;-72
2021/08/07 08:28:50;;;;;;;9.20;3.42;;;;;;;17.58;81.84;100376.44;4982289;28;20062;-72
2021/08/07 08:31:18;;;;;;;6.00;2.88;;;;;;;17.81;81.02;100388.31;4980093;28;20169;-73
2021/08/07 08:33:46;;;;;;;9.25;3.42;;;;;;;17.55;80.31;100381.09;4980184;28;20169;-72
2021/08/07 08:36:15;;;;;;;11.15;3.70;;;;;;;17.94;80.26;100375.75;4975614;28;20066;-74
2021/08/07 08:38:42;;;;;;;7.43;3.53;;;;;;;17.87;79.29;100374.44;4980325;28;20097;-73
2021/08/07 08:41:10;;;;;;;11.75;3.40;;;;;;;18.13;78.26;100377.16;4982122;28;20068;-73
2021/08/07 08:43:39;;;;;;;10.90;3.42;;;;;;;18.36;78.44;100376.38;4979491;28;20661;-74
2021/08/07 08:46:07;;;;;;;6.82;2.53;;;;;;;18.07;76.92;100373.91;4982027;28;20069;-72
2021/08/07 08:48:36;;;;;;;8.68;3.03;;;;;;;17.90;77.55;100363.44;4978254;28;20371;-75
2021/08/07 08:51:08;;;;;;;7.50;3.10;;;;;;;18.31;75.53;100364.19;4982273;28;20054;-74
2021/08/07 08:53:39;;;;;;;6.22;2.72;;;;;;;18.29;75.68;100367.84;4977710;28;20062;-73
2021/08/07 08:56:08;;;;;;;12.63;2.97;;;;;;;19.67;72.96;100353.09;4978987;28;20341;-73
2021/08/07 08:58:36;;;;;;;8.20;3.05;;;;;;;19.41;71.21;100347.88;4977484;28;20074;-73
2021/08/07 09:01:04;;;;;;;7.50;3.05;;;;;;;19.22;72.21;100358.34;4979795;28;20058;-72
2021/08/07 09:03:32;;;;;;;4.85;2.42;;;;;;;19.68;70.90;100343.13;4982557;28;20096;-72
2021/08/07 09:06:01;;;;;;;8.02;2.85;;;;;;;19.31;69.95;100336.03;4978673;28;20046;-72
2021/08/07 09:08:29;;;;;;;11.88;3.40;;;;;;;20.04;67.79;100325.00;4979245;28;20051;-72
2021/08/07 09:11:17;;;;;;;8.00;2.80;;;;;;;21.07;65.98;100309.31;4980130;28;20074;-72
2021/08/07 09:13:44;;;;;;;6.63;2.83;;;;;;;21.51;63.49;100324.69;4977680;28;20050;-71
2021/08/07 09:16:14;;;;;;;7.30;2.83;;;;;;;21.31;64.08;100319.06;4979602;28;20058;-71
2021/08/07 09:18:43;;;;;;;9.02;2.78;;;;;;;21.30;63.56;100311.94;4980104;28;20092;-71
2021/08/07 09:21:14;;;;;;;7.65;2.55;;;;;;;20.98;62.28;100307.38;4980292;28;20058;-71
2021/08/07 09:23:46;;;;;;;6.60;2.75;;;;;;;21.20;63.08;100314.56;4978433;28;20430;-72
2021/08/07 09:26:19;;;;;;;7.07;3.28;;;;;;;20.51;65.48;100314.88;4980533;28;20546;-72
2021/08/07 09:28:51;;;;;;;10.65;2.85;;;;;;;20.19;67.05;100306.66;4979888;28;20076;-72
2021/08/07 09:31:21;;;;;;;6.55;3.05;;;;;;;20.50;65.43;100308.59;4981111;28;20093;-71
2021/08/07 09:34:20;;;;;;;8.38;3.30;;;;;;;20.33;66.48;100301.00;4978131;28;20587;-71
2021/08/07 09:36:49;;;;;;;6.85;2.78;;;;;;;20.57;66.23;100295.41;4977900;28;20059;-73
2021/08/07 09:39:34;;;;;;;7.15;3.35;;;;;;;21.06;64.84;100298.56;4978495;28;20342;-70
2021/08/07 09:42:04;;;;;;;12.43;4.60;;;;;;;21.60;61.37;100289.44;4980336;28;20073;-69
2021/08/07 09:44:32;;;;;;;7.97;4.32;;;;;;;22.54;59.68;100285.69;4979728;28;20065;-70
2021/08/07 09:47:04;;;;;;;8.60;4.03;;;;;;;22.37;58.88;100285.38;4980521;28;20160;-69
2021/08/07 09:49:37;;;;;;;8.75;3.75;;;;;;;21.78;59.93;100292.41;4981758;28;20372;-69
2021/08/07 09:52:06;;;;;;;8.15;4.15;;;;;;;21.67;60.28;100300.63;4980335;28;20070;-70
2021/08/07 09:54:38;;;;;;;12.52;3.20;;;;;;;21.64;61.25;100293.63;4978518;28;20042;-69
2021/08/07 09:57:09;;;;;;;8.48;3.30;;;;;;;21.50;63.20;100282.22;4979186;28;20519;-69
2021/08/07 09:59:46;;;;;;;13.25;4.15;;;;;;;21.79;61.37;100268.81;4978619;28;20050;-69
2021/08/07 10:02:23;;;;;;;6.07;2.90;;;;;;;22.42;59.48;100278.66;4980433;28;20059;-70
2021/08/07 10:04:51;;;;;;;7.82;3.30;;;;;;;22.41;59.74;100274.22;4978200;28;20074;-71
2021/08/07 10:07:19;;;;;;;7.43;3.78;;;;;;;22.42;59.22;100274.06;4981565;28;20075;-70
2021/08/07 10:09:47;;;;;;;8.02;3.97;;;;;;;22.41;57.89;100271.50;4977362;28;20439;-69
2021/08/07 10:12:17;;;;;;;10.15;4.95;;;;;;;22.02;59.89;100277.66;4979241;28;20062;-71
2021/08/07 10:14:46;;;;;;;8.65;4.13;;;;;;;21.93;60.71;100276.63;4979530;28;20062;-73
2021/08/07 10:17:16;;;;;;;9.55;4.25;;;;;;;22.83;58.80;100274.00;4975873;28;20067;-72
2021/08/07 10:19:44;;;;;;;8.10;4.15;;;;;;;23.11;56.14;100264.16;4978658;28;20062;-72
2021/08/07 10:22:14;;;;;;;9.27;4.63;;;;;;;22.82;56.90;100256.81;4976936;28;20419;-71
2021/08/07 10:24:44;;;;;;;8.52;3.78;;;;;;;23.04;54.50;100261.13;4978642;28;20108;-69
2021/08/07 10:27:13;;;;;;;5.95;3.88;;;;;;;23.21;54.17;100251.41;4979234;28;20066;-71
2021/08/07 10:29:45;;;;;;;6.38;4.03;;;;;;;22.34;56.77;100252.19;4977302;28;20872;-71
2021/08/07 10:32:15;;;;;;;5.95;3.60;;;;;;;22.78;55.51;100243.66;4977976;28;20351;-73
2021/08/07 10:34:49;;;;;;;6.05;3.20;;;;;;;23.07;54.37;100243.66;4979260;28;20120;-72
2021/08/07 10:37:16;;;;;;;7.57;3.30;;;;;;;22.89;52.44;100235.34;4979856;28;20113;-72
2021/08/07 10:39:45;;;;;;;6.43;3.17;;;;;;;22.66;53.42;100241.09;4977688;28;20081;-72
2021/08/07 10:42:16;;;;;;;6.75;2.92;;;;;;;23.05;52.31;100235.63;4979232;28;20066;-69
2021/08/07 10:44:47;;;;;;;7.72;3.50;;;;;;;22.99;51.97;100238.94;4976141;28;20483;-69
2021/08/07 10:47:15;;;;;;;8.13;3.40;;;;;;;22.64;52.33;100232.19;4979097;28;20104;-70
2021/08/07 10:49:46;;;;;;;6.95;2.80;;;;;;;22.34;52.97;100246.75;4980111;28;20078;-70
2021/08/07 10:52:35;;;;;;;10.98;3.30;;;;;;;22.60;53.67;100224.47;4978142;28;20070;-70
2021/08/07 10:55:03;;;;;;;5.65;2.42;;;;;;;22.52;51.98;100230.59;4972473;28;20209;-71
2021/08/07 10:57:37;;;;;;;10.25;3.42;;;;;;;21.99;53.83;100232.59;4983454;28;20151;-70
2021/08/07 11:00:26;;;;;;;9.07;3.17;;;;;;;21.78;55.63;100231.81;4980526;28;20067;-71
2021/08/07 11:03:13;;;;;;;4.85;2.75;;;;;;;21.86;55.29;100220.25;4981575;28;20066;-71
2021/08/07 11:05:51;;;;;;;7.10;3.28;;;;;;;23.29;53.76;100220.72;4983009;28;20112;-71
2021/08/07 11:08:20;;;;;;;7.70;2.78;;;;;;;23.34;50.08;100223.00;4980391;28;20137;-70
2021/08/07 11:10:48;;;;;;;4.05;2.50;;;;;;;23.16;47.47;100214.75;4982280;28;20314;-68
2021/08/07 11:13:24;;;;;;;4.97;2.30;;;;;;;23.35;46.84;100209.25;4983079;28;20066;-71
2021/08/07 11:16:21;;;;;;;9.77;2.92;;;;;;;23.33;48.15;100216.72;4978624;28;20873;-71
2021/08/07 11:18:49;;;;;;;5.63;2.60;;;;;;;23.27;48.49;100220.00;4980051;28;20070;-71
2021/08/07 11:21:50;;;;;;;7.72;2.60;;;;;;;23.18;48.14;100213.59;4978388;28;20066;-71
2021/08/07 11:24:56;;;;;;;4.30;2.20;;;;;;;23.49;46.73;100206.06;4982007;28;20089;-68
2021/08/07 11:27:59;;;;;;;6.50;2.53;;;;;;;22.89;47.96;100217.16;4979444;28;20066;-68
2021/08/07 11:30:28;;;;;;;6.18;2.40;;;;;;;22.87;48.22;100218.34;4981289;28;20062;-68